Powder Springs, Tennessee
Current Conditions -  °F | °C
As of 7:15 AM on Sunday 23 Nov 2014 (Local Time) from KMOR Reporting Station
Overcast Overcast  
Wind Chill: 40°   Ceiling: 7000
Heat Index: 45°   Visibility: 10mi
Dew Point: 34°   Wind: 9mph
Humidity: 66%   Direction: 70°ENE
Pressure: 30.05"   Gusts: NA
Location:  36.25°N, 83.67°W
Report Text: KMOR 231215Z AUTO 07008KT 10SM OVC070 07/01 A3005 RMK
Loading
Personal Weather Stations






























Interactive Weather Map New forecast layout! Learn more

10-Day Weather Forecast

Advertisements
Track Severe Weather on mobile